createdAt,value
2022-08-23T00:00:18.190Z,98557.81
2022-08-23T00:02:46.949Z,98568.00
2022-08-23T00:05:15.518Z,98578.56
2022-08-23T00:07:45.261Z,98549.97
2022-08-23T00:10:17.591Z,98568.75
2022-08-23T00:12:48.720Z,98566.41
2022-08-23T00:15:20.336Z,98571.09
2022-08-23T00:17:51.557Z,98586.78
2022-08-23T00:20:23.887Z,98580.16
2022-08-23T00:22:52.271Z,98583.69
2022-08-23T00:25:22.307Z,98582.88
2022-08-23T00:27:50.749Z,98586.00
2022-08-23T00:30:22.255Z,98586.00
2022-08-23T00:32:50.598Z,98586.03
2022-08-23T00:35:27.036Z,98561.69
2022-08-23T00:38:31.957Z,98555.44
2022-08-23T00:40:53.178Z,98563.66
2022-08-23T00:43:48.167Z,98573.44
2022-08-23T00:46:49.464Z,98557.34
2022-08-23T00:49:19.006Z,98553.84
2022-08-23T00:51:52.399Z,98558.50
2022-08-23T00:54:24.572Z,98562.44
2022-08-23T00:56:56.117Z,98574.19
2022-08-23T00:59:27.924Z,98567.53
2022-08-23T01:01:56.793Z,98570.69
2022-08-23T01:04:26.699Z,98566.38
2022-08-23T01:07:03.704Z,98576.56
2022-08-23T01:09:34.921Z,98564.03
2022-08-23T01:12:12.175Z,98565.63
2022-08-23T01:14:45.724Z,98570.69
2022-08-23T01:17:18.098Z,98578.13
2022-08-23T01:19:54.873Z,98584.81
2022-08-23T01:22:29.047Z,98589.88
2022-08-23T01:25:06.264Z,98583.59
2022-08-23T01:27:36.899Z,98578.50
2022-08-23T01:30:06.582Z,98561.63
2022-08-23T01:32:39.798Z,98576.91
2022-08-23T01:35:08.786Z,98567.88
2022-08-23T01:37:37.526Z,98560.03
2022-08-23T01:40:09.076Z,98565.50
2022-08-23T01:42:41.838Z,98564.66
2022-08-23T01:45:12.223Z,98567.78
2022-08-23T01:47:44.927Z,98563.03
2022-08-23T01:50:14.653Z,98563.00
2022-08-23T01:52:46.803Z,98586.47
2022-08-23T01:55:18.158Z,98578.94
2022-08-23T01:57:48.438Z,98594.66
2022-08-23T02:00:22.549Z,98580.16
2022-08-23T02:02:51.421Z,98582.16
2022-08-23T02:05:20.481Z,98577.06
2022-08-23T02:07:49.660Z,98568.47
2022-08-23T02:10:20.043Z,98595.88
2022-08-23T02:12:48.849Z,98579.06
2022-08-23T02:15:17.778Z,98573.19
2022-08-23T02:17:46.718Z,98564.19
2022-08-23T02:20:19.564Z,98585.38
2022-08-23T02:22:47.846Z,98567.72
2022-08-23T02:25:20.507Z,98573.19
2022-08-23T02:27:51.786Z,98569.25
2022-08-23T02:30:22.981Z,98581.34
2022-08-23T02:32:51.351Z,98589.19
2022-08-23T02:35:20.382Z,98577.09
2022-08-23T02:37:52.844Z,98584.19
2022-08-23T02:40:23.022Z,98583.41
2022-08-23T02:42:54.307Z,98587.34
2022-08-23T02:45:25.358Z,98594.38
2022-08-23T02:47:53.782Z,98587.34
2022-08-23T02:50:22.756Z,98572.81
2022-08-23T02:52:51.206Z,98589.66
2022-08-23T02:55:20.466Z,98585.72
2022-08-23T02:57:50.258Z,98572.75
2022-08-23T03:00:22.124Z,98573.88
2022-08-23T03:02:50.441Z,98589.50
2022-08-23T03:05:19.256Z,98585.19
2022-08-23T03:07:47.563Z,98602.78
2022-08-23T03:10:16.522Z,98612.16
2022-08-23T03:12:47.900Z,98616.50
2022-08-23T03:15:17.820Z,98607.06
2022-08-23T03:17:49.041Z,98611.34
2022-08-23T03:20:17.685Z,98616.03
2022-08-23T03:22:50.515Z,98622.72
2022-08-23T03:25:24.172Z,98622.72
2022-08-23T03:27:52.509Z,98641.91
2022-08-23T03:30:24.945Z,98632.53
2022-08-23T03:32:53.197Z,98625.47
2022-08-23T03:35:21.557Z,98639.97
2022-08-23T03:37:55.341Z,98655.31
2022-08-23T03:40:24.265Z,98636.88
2022-08-23T03:42:53.106Z,98653.78
2022-08-23T03:45:23.152Z,98638.84
2022-08-23T03:47:54.127Z,98640.78
2022-08-23T03:50:23.168Z,98641.91
2022-08-23T03:52:54.785Z,98650.16
2022-08-23T03:55:23.040Z,98652.13
2022-08-23T03:57:51.619Z,98669.00
2022-08-23T04:00:20.489Z,98669.34
2022-08-23T04:02:51.187Z,98664.66
2022-08-23T04:05:19.920Z,98652.91
2022-08-23T04:07:48.267Z,98671.75
2022-08-23T04:10:16.550Z,98660.78
2022-08-23T04:12:47.692Z,98677.28
2022-08-23T04:15:21.508Z,98673.38
2022-08-23T04:17:51.364Z,98684.41
2022-08-23T04:20:19.856Z,98669.13
2022-08-23T04:22:53.508Z,98674.25
2022-08-23T04:25:33.072Z,98668.75
2022-08-23T04:28:06.588Z,98664.88
2022-08-23T04:30:35.012Z,98693.06
2022-08-23T04:33:10.651Z,98687.94
2022-08-23T04:35:43.073Z,98679.66
2022-08-23T04:38:24.445Z,98674.66
2022-08-23T04:41:11.218Z,98676.25
2022-08-23T04:43:40.001Z,98671.25
2022-08-23T04:46:11.189Z,98674.41
2022-08-23T04:48:44.587Z,98678.38
2022-08-23T04:51:17.097Z,98687.44
2022-08-23T04:53:45.583Z,98688.28
2022-08-23T04:56:17.171Z,98683.19
2022-08-23T04:58:45.872Z,98675.75
2022-08-23T05:01:16.310Z,98671.06
2022-08-23T05:03:46.260Z,98685.56
2022-08-23T05:06:15.011Z,98676.53
2022-08-23T05:08:43.419Z,98677.72
2022-08-23T05:11:12.741Z,98694.97
2022-08-23T05:13:43.710Z,98685.56
2022-08-23T05:16:12.182Z,98702.03
2022-08-23T05:18:43.405Z,98689.09
2022-08-23T05:21:18.263Z,98699.69
2022-08-23T05:23:50.967Z,98713.41
2022-08-23T05:26:23.665Z,98694.97
2022-08-23T05:28:52.264Z,98715.38
2022-08-23T05:31:25.156Z,98706.72
2022-08-23T05:33:53.997Z,98709.84
2022-08-23T05:36:23.825Z,98720.34
2022-08-23T05:38:53.519Z,98703.06
2022-08-23T05:41:37.769Z,98694.78
2022-08-23T05:44:06.666Z,98725.72
2022-08-23T05:46:36.091Z,98714.38
2022-08-23T05:49:05.141Z,98707.31
2022-08-23T05:51:39.003Z,98722.56
2022-08-23T05:54:09.698Z,98715.50
2022-08-23T05:56:41.595Z,98710.00
2022-08-23T05:59:15.344Z,98719.78
2022-08-23T06:01:44.630Z,98723.63
2022-08-23T06:04:14.441Z,98713.75
2022-08-23T06:06:48.668Z,98729.78
2022-08-23T06:09:19.575Z,98723.75
2022-08-23T06:11:49.563Z,98702.94
2022-08-23T06:14:17.987Z,98706.09
2022-08-23T06:16:53.675Z,98719.47
2022-08-23T06:19:23.990Z,98722.59
2022-08-23T06:21:54.162Z,98735.19
2022-08-23T06:24:23.464Z,98716.00
2022-08-23T06:26:54.456Z,98711.66
2022-08-23T06:29:22.913Z,98728.09
2022-08-23T06:31:52.901Z,98701.34
2022-08-23T06:34:23.904Z,98727.03
2022-08-23T06:36:56.807Z,98711.53
2022-08-23T06:39:34.425Z,98719.28
2022-08-23T06:42:28.041Z,98725.06
2022-08-23T06:44:56.696Z,98720.28
2022-08-23T06:47:28.095Z,98726.53
2022-08-23T06:49:58.387Z,98710.13
2022-08-23T06:52:28.615Z,98708.09
2022-08-23T06:54:59.811Z,98710.81
2022-08-23T06:57:28.264Z,98706.19
2022-08-23T06:59:56.504Z,98704.63
2022-08-23T07:02:27.973Z,98704.50
2022-08-23T07:04:56.278Z,98697.22
2022-08-23T07:07:24.525Z,98713.56
2022-08-23T07:10:10.493Z,98703.97
2022-08-23T07:12:42.688Z,98696.25
2022-08-23T07:15:12.845Z,98704.16
2022-08-23T07:17:43.831Z,98707.44
2022-08-23T07:20:12.272Z,98711.19
2022-08-23T07:22:41.119Z,98700.44
2022-08-23T07:25:11.209Z,98691.66
2022-08-23T07:27:39.665Z,98705.97
2022-08-23T07:30:09.485Z,98699.47
2022-08-23T07:32:37.822Z,98708.38
2022-08-23T07:35:07.369Z,98701.00
2022-08-23T07:37:35.682Z,98704.59
2022-08-23T07:40:04.003Z,98697.47
2022-08-23T07:42:36.833Z,98706.00
2022-08-23T07:45:10.046Z,98710.53
2022-08-23T07:47:48.256Z,98711.28
2022-08-23T07:50:18.656Z,98711.06
2022-08-23T07:52:47.472Z,98714.84
2022-08-23T07:55:16.043Z,98720.19
2022-08-23T07:57:47.532Z,98715.28
2022-08-23T08:00:16.800Z,98702.50
2022-08-23T08:02:45.103Z,98709.75
2022-08-23T08:05:13.485Z,98700.66
2022-08-23T08:07:45.269Z,98712.06
2022-08-23T08:10:13.640Z,98718.59
2022-08-23T08:12:42.069Z,98731.56
2022-08-23T08:15:12.524Z,98723.59
2022-08-23T08:17:40.809Z,98719.09
2022-08-23T08:20:10.507Z,98725.56
2022-08-23T08:22:38.882Z,98716.50
2022-08-23T08:25:08.171Z,98716.75
2022-08-23T08:27:36.640Z,98717.75
2022-08-23T08:30:05.392Z,98710.22
2022-08-23T08:32:35.135Z,98702.75
2022-08-23T08:35:03.647Z,98708.03
2022-08-23T08:37:36.500Z,98717.13
2022-08-23T08:40:05.698Z,98705.72
2022-08-23T08:42:55.516Z,98714.19
2022-08-23T08:45:27.227Z,98703.47
2022-08-23T08:48:03.879Z,98709.63
2022-08-23T08:50:40.992Z,98696.34
2022-08-23T08:53:15.235Z,98703.22
2022-08-23T08:55:50.875Z,98709.81
2022-08-23T08:58:29.024Z,98709.34
2022-08-23T09:00:58.399Z,98702.28
2022-08-23T09:03:34.063Z,98703.03
2022-08-23T09:06:13.415Z,98699.88
2022-08-23T09:08:56.466Z,98696.22
2022-08-23T09:11:35.431Z,98711.19
2022-08-23T09:14:34.832Z,98705.31
2022-08-23T09:17:06.480Z,98689.13
2022-08-23T09:19:39.416Z,98694.91
2022-08-23T09:22:13.693Z,98698.13
2022-08-23T09:24:42.547Z,98697.63
2022-08-23T09:27:12.039Z,98694.28
2022-08-23T09:29:52.726Z,98679.19
2022-08-23T09:32:33.091Z,98686.44
2022-08-23T09:35:11.537Z,98681.56
2022-08-23T09:38:05.660Z,98670.22
2022-08-23T09:40:41.978Z,98692.00
2022-08-23T09:43:14.432Z,98678.47
2022-08-23T09:45:56.985Z,98670.69
2022-08-23T09:48:36.974Z,98671.44
2022-08-23T09:51:16.930Z,98666.63
2022-08-23T09:53:50.253Z,98667.78
2022-08-23T09:56:24.360Z,98680.13
2022-08-23T09:58:53.787Z,98680.75
2022-08-23T10:01:25.899Z,98678.88
2022-08-23T10:04:13.290Z,98663.91
2022-08-23T10:06:46.792Z,98656.88
2022-08-23T10:09:26.789Z,98650.34
2022-08-23T10:11:56.891Z,98645.19
2022-08-23T10:14:28.778Z,98641.97
2022-08-23T10:17:11.241Z,98642.88
2022-08-23T10:19:49.950Z,98638.09
2022-08-23T10:22:23.651Z,98635.97
2022-08-23T10:24:58.831Z,98635.28
2022-08-23T10:27:53.910Z,98633.13
2022-08-23T10:30:25.261Z,98636.09
2022-08-23T10:33:03.558Z,98630.81
2022-08-23T10:35:40.186Z,98624.63
2022-08-23T10:38:32.061Z,98631.19
2022-08-23T10:41:04.481Z,98616.75
2022-08-23T10:43:44.290Z,98609.31
2022-08-23T10:46:14.229Z,98610.53
2022-08-23T10:48:51.919Z,98607.88
2022-08-23T10:51:31.722Z,98601.47
2022-08-23T10:54:07.703Z,98608.91
2022-08-23T10:56:42.999Z,98598.38
2022-08-23T10:59:24.148Z,98609.25
2022-08-23T11:01:58.265Z,98603.31
2022-08-23T11:04:35.083Z,98604.78
2022-08-23T11:07:15.903Z,98600.94
2022-08-23T11:09:59.621Z,98601.72
2022-08-23T11:12:34.446Z,98595.56
2022-08-23T11:15:19.740Z,98587.81
2022-08-23T11:17:58.612Z,98581.03
2022-08-23T11:21:02.040Z,98595.88
2022-08-23T11:23:56.123Z,98591.56
2022-08-23T11:27:07.136Z,98591.72
2022-08-23T11:29:39.388Z,98576.06
2022-08-23T11:32:32.779Z,98575.41
2022-08-23T11:35:09.858Z,98579.06
2022-08-23T11:38:05.104Z,98569.66
2022-08-23T11:40:57.235Z,98578.59
2022-08-23T11:43:30.609Z,98575.06
2022-08-23T11:46:35.954Z,98564.28
2022-08-23T11:49:49.917Z,98569.63
2022-08-23T11:52:40.236Z,98566.69
2022-08-23T11:55:30.031Z,98567.59
2022-08-23T11:58:18.446Z,98564.53
2022-08-23T12:01:06.391Z,98575.50
2022-08-23T12:03:53.273Z,98589.06
2022-08-23T12:06:41.631Z,98584.53
2022-08-23T12:09:31.399Z,98598.56
2022-08-23T12:12:24.365Z,98591.56
2022-08-23T12:14:58.932Z,98597.63
2022-08-23T12:18:08.452Z,98610.41
2022-08-23T12:20:41.217Z,98608.69
2022-08-23T12:23:20.488Z,98601.19
2022-08-23T12:26:06.830Z,98596.81
2022-08-23T12:28:45.212Z,98616.06
2022-08-23T12:31:30.167Z,98612.13
2022-08-23T12:34:20.037Z,98617.66
2022-08-23T12:37:00.955Z,98620.47
2022-08-23T12:39:33.735Z,98627.28
2022-08-23T12:42:08.230Z,98630.38
2022-08-23T12:44:36.655Z,98650.94
2022-08-23T12:47:16.841Z,98673.22
2022-08-23T12:49:56.945Z,98694.25
2022-08-23T12:52:32.960Z,98700.28
2022-08-23T12:55:01.893Z,98694.00
2022-08-23T12:57:38.689Z,98685.81
2022-08-23T13:00:18.511Z,98698.50
2022-08-23T13:02:51.747Z,98695.84
2022-08-23T13:05:31.883Z,98719.19
2022-08-23T13:08:04.320Z,98731.28
2022-08-23T13:10:32.989Z,98748.25
2022-08-23T13:13:02.090Z,98761.47
2022-08-23T13:15:48.960Z,98767.84
2022-08-23T13:18:33.873Z,98788.66
2022-08-23T13:21:19.696Z,98794.47
2022-08-23T13:23:49.518Z,98774.72
2022-08-23T13:26:31.079Z,98758.97
2022-08-23T13:29:11.502Z,98776.22
2022-08-23T13:31:56.385Z,98813.47
2022-08-23T13:34:35.936Z,98787.31
2022-08-23T13:37:06.636Z,98834.56
2022-08-23T13:39:36.831Z,98833.50
2022-08-23T13:42:05.261Z,98817.50
2022-08-23T13:44:34.764Z,98765.88
2022-08-23T13:47:03.610Z,98762.06
2022-08-23T13:55:06.537Z,98732.00
2022-08-23T13:57:37.377Z,98725.72
2022-08-23T14:00:09.321Z,98728.91
2022-08-23T14:02:38.606Z,98709.66
2022-08-23T14:05:09.605Z,98708.91
2022-08-23T14:07:40.994Z,98687.78
2022-08-23T14:10:11.533Z,98670.19
2022-08-23T14:12:40.192Z,98670.63
2022-08-23T14:15:12.848Z,98656.16
2022-08-23T14:17:44.435Z,98651.09
2022-08-23T14:23:12.184Z,98677.69
2022-08-23T14:25:42.637Z,98694.13
2022-08-23T14:28:11.178Z,98708.56
2022-08-23T14:30:39.653Z,98709.63
2022-08-23T14:33:08.266Z,98698.44
2022-08-23T14:35:39.517Z,98713.41
2022-08-23T14:38:12.504Z,98722.56
2022-08-23T14:40:51.428Z,98743.91
2022-08-23T14:43:20.675Z,98741.50
2022-08-23T14:45:49.519Z,98737.91
2022-08-23T14:48:21.246Z,98716.03
2022-08-23T14:50:49.535Z,98729.97
2022-08-23T14:53:20.291Z,98722.22
2022-08-23T14:56:12.344Z,98716.75
2022-08-23T14:58:42.867Z,98718.88
2022-08-23T15:01:12.463Z,98731.22
2022-08-23T15:03:43.863Z,98726.66
2022-08-23T15:06:13.498Z,98743.91
2022-08-23T15:08:42.311Z,98738.81
2022-08-23T15:14:05.159Z,98742.69
2022-08-23T15:16:33.630Z,98734.81
2022-08-23T15:19:02.160Z,98739.97
2022-08-23T15:21:33.108Z,98744.63
2022-08-23T15:24:02.625Z,98723.75
2022-08-23T15:26:35.927Z,98742.91
2022-08-23T15:29:04.787Z,98733.91
2022-08-23T15:31:33.657Z,98736.59
2022-08-23T15:34:04.757Z,98747.09
2022-08-23T15:36:41.139Z,98717.38
2022-08-23T15:39:12.624Z,98725.63
2022-08-23T15:41:42.473Z,98739.44
2022-08-23T15:44:11.050Z,98749.16
2022-08-23T15:46:47.266Z,98764.47
2022-08-23T15:49:20.084Z,98766.53
2022-08-23T15:51:51.343Z,98765.72
2022-08-23T15:54:19.846Z,98767.69
2022-08-23T15:56:53.967Z,98767.69
2022-08-23T15:59:22.846Z,98762.72
2022-08-23T16:01:51.093Z,98782.06
2022-08-23T16:04:19.398Z,98773.53
2022-08-23T16:06:50.663Z,98779.06
2022-08-23T16:09:22.356Z,98753.66
2022-08-23T16:11:53.153Z,98759.50
2022-08-23T16:14:23.525Z,98763.06
2022-08-23T16:16:54.310Z,98751.31
2022-08-23T16:19:23.064Z,98754.47
2022-08-23T16:21:53.203Z,98756.88
2022-08-23T16:24:22.460Z,98739.63
2022-08-23T16:26:55.129Z,98762.78
2022-08-23T16:29:24.061Z,98761.59
2022-08-23T16:31:52.395Z,98735.75
2022-08-23T16:34:21.645Z,98743.59
2022-08-23T16:36:58.894Z,98744.00
2022-08-23T16:39:27.993Z,98739.31
2022-08-23T16:42:01.499Z,98747.13
2022-08-23T16:44:30.122Z,98742.03
2022-08-23T16:46:59.185Z,98738.88
2022-08-23T16:49:30.263Z,98764.00
2022-08-23T16:52:01.417Z,98762.84
2022-08-23T16:54:29.745Z,98752.25
2022-08-23T16:57:05.668Z,98756.94
2022-08-23T16:59:39.726Z,98749.84
2022-08-23T17:02:23.665Z,98766.75
2022-08-23T17:04:54.755Z,98755.34
2022-08-23T17:07:23.180Z,98768.72
2022-08-23T17:09:54.263Z,98755.75
2022-08-23T17:12:24.093Z,98768.28
2022-08-23T17:14:57.431Z,98760.03
2022-08-23T17:17:28.407Z,98771.41
2022-08-23T17:19:56.748Z,98764.34
2022-08-23T17:22:27.785Z,98762.78
2022-08-23T17:24:56.136Z,98757.69
2022-08-23T17:27:26.054Z,98757.72
2022-08-23T17:29:54.623Z,98758.09
2022-08-23T17:32:23.337Z,98780.47
2022-08-23T17:34:54.526Z,98769.84
2022-08-23T17:37:25.983Z,98774.94
2022-08-23T17:39:54.552Z,98751.78
2022-08-23T17:42:27.107Z,98776.88
2022-08-23T17:44:58.598Z,98778.84
2022-08-23T17:47:30.066Z,98772.19
2022-08-23T17:50:00.187Z,98782.41
2022-08-23T17:52:28.964Z,98796.53
2022-08-23T17:55:00.313Z,98789.44
2022-08-23T17:57:32.811Z,98798.06
2022-08-23T18:00:02.268Z,98812.22
2022-08-23T18:02:30.681Z,98811.81
2022-08-23T18:04:59.063Z,98814.56
2022-08-23T18:07:27.579Z,98837.72
2022-08-23T18:09:58.490Z,98847.06
2022-08-23T18:12:27.107Z,98866.25
2022-08-23T18:14:57.186Z,98887.03
2022-08-23T18:19:56.247Z,98898.75
2022-08-23T18:24:55.336Z,98892.47
2022-08-23T18:27:42.341Z,98903.09
2022-08-23T18:30:13.645Z,98883.84
2022-08-23T18:32:44.959Z,98901.91
2022-08-23T18:35:16.075Z,98912.88
2022-08-23T18:37:44.769Z,98906.56
2022-08-23T18:40:14.396Z,98912.47
2022-08-23T18:42:45.711Z,98904.28
2022-08-23T18:45:15.627Z,98911.38
2022-08-23T18:47:46.893Z,98920.84
2022-08-23T18:50:16.619Z,98921.22
2022-08-23T18:52:45.051Z,98917.66
2022-08-23T18:55:17.777Z,98909.00
2022-08-23T18:57:48.858Z,98924.69
2022-08-23T19:00:18.975Z,98932.50
2022-08-23T19:02:49.867Z,98919.50
2022-08-23T19:05:18.187Z,98912.41
2022-08-23T19:07:46.549Z,98919.81
2022-08-23T19:10:19.705Z,98923.66
2022-08-23T19:12:54.170Z,98936.97
2022-08-23T19:15:25.080Z,98951.16
2022-08-23T19:17:58.281Z,98960.59
2022-08-23T19:20:30.565Z,98948.72
2022-08-23T19:22:59.148Z,98939.31
2022-08-23T19:25:31.697Z,98940.50
2022-08-23T19:28:00.262Z,98952.34
2022-08-23T19:30:30.090Z,98948.84
2022-08-23T19:32:58.461Z,98932.63
2022-08-23T19:35:30.535Z,98939.63
2022-08-23T19:37:59.210Z,98932.19
2022-08-23T19:40:28.245Z,98938.09
2022-08-23T19:43:00.616Z,98923.97
2022-08-23T19:45:31.230Z,98944.03
2022-08-23T19:48:00.896Z,98927.56
2022-08-23T19:50:29.555Z,98923.66
2022-08-23T19:53:00.923Z,98916.50
2022-08-23T19:55:34.866Z,98930.28
2022-08-23T19:58:06.125Z,98942.38
2022-08-23T20:00:39.198Z,98944.69
2022-08-23T20:03:09.476Z,98944.63
2022-08-23T20:05:38.405Z,98975.59
2022-08-23T20:08:09.542Z,98966.50
2022-08-23T20:10:37.965Z,98966.81
2022-08-23T20:13:09.194Z,98991.53
2022-08-23T20:15:42.364Z,98990.72
2022-08-23T20:18:10.977Z,99007.16
2022-08-23T20:20:39.482Z,98991.41
2022-08-23T20:23:25.570Z,99000.84
2022-08-23T20:25:54.439Z,98988.28
2022-08-23T20:28:26.265Z,98998.50
2022-08-23T20:30:57.252Z,98994.53
2022-08-23T20:33:28.366Z,98983.88
2022-08-23T20:35:56.693Z,98990.94
2022-08-23T20:38:33.282Z,99001.91
2022-08-23T20:41:05.446Z,99009.38
2022-08-23T20:43:34.571Z,99012.91
2022-08-23T20:46:05.427Z,99022.00
2022-08-23T20:48:34.545Z,99021.19
2022-08-23T20:51:03.907Z,99025.84
2022-08-23T20:53:32.875Z,99003.41
2022-08-23T20:56:01.765Z,98999.81
2022-08-23T20:58:30.543Z,99028.81
2022-08-23T21:00:59.166Z,99010.19
2022-08-23T21:03:30.076Z,99023.63
2022-08-23T21:06:04.765Z,99011.78
2022-08-23T21:08:33.381Z,99013.84
2022-08-23T21:11:03.324Z,99002.09
2022-08-23T21:13:31.568Z,99010.00
2022-08-23T21:16:00.533Z,99017.03
2022-08-23T21:18:30.410Z,99001.63
2022-08-23T21:20:59.562Z,99016.69
2022-08-23T21:23:28.253Z,99023.03
2022-08-23T21:25:58.048Z,99024.16
2022-08-23T21:28:27.560Z,99016.72
2022-08-23T21:30:56.413Z,99036.81
2022-08-23T21:33:26.005Z,99029.84
2022-08-23T21:36:04.632Z,99014.88
2022-08-23T21:38:33.340Z,99013.34
2022-08-23T21:41:10.422Z,99033.41
2022-08-23T21:43:42.148Z,99042.06
2022-08-23T21:46:13.525Z,99024.38
2022-08-23T21:48:42.078Z,99042.50
2022-08-23T21:51:11.849Z,99044.44
2022-08-23T21:53:40.282Z,99029.09
2022-08-23T21:56:08.874Z,99021.19
2022-08-23T21:58:37.253Z,99032.97
2022-08-23T22:01:06.624Z,99036.13
2022-08-23T22:03:40.478Z,99022.84
2022-08-23T22:06:18.028Z,99024.50
2022-08-23T22:08:49.520Z,99014.31
2022-08-23T22:11:17.985Z,99026.25
2022-08-23T22:13:46.396Z,99004.25
2022-08-23T22:16:15.101Z,98999.97
2022-08-23T22:18:46.270Z,98987.47
2022-08-23T22:21:16.031Z,98978.81
2022-08-23T22:23:47.354Z,98979.22
2022-08-23T22:26:15.867Z,98971.03
2022-08-23T22:28:45.103Z,98958.03
2022-08-23T22:31:16.244Z,98943.84
2022-08-23T22:33:50.573Z,98948.59
2022-08-23T22:36:22.906Z,98938.38
2022-08-23T22:38:52.282Z,98927.03
2022-08-23T22:41:25.736Z,98929.41
2022-08-23T22:43:54.944Z,98944.41
2022-08-23T22:46:23.647Z,98924.78
2022-08-23T22:48:53.737Z,98923.97
2022-08-23T22:51:32.220Z,98937.41
2022-08-23T22:54:05.473Z,98928.31
2022-08-23T22:56:38.807Z,98924.84
2022-08-23T22:59:07.931Z,98926.09
2022-08-23T23:01:44.230Z,98909.16
2022-08-23T23:04:15.248Z,98911.19
2022-08-23T23:06:46.590Z,98893.50
2022-08-23T23:09:15.188Z,98887.19
2022-08-23T23:11:44.325Z,98871.88
2022-08-23T23:14:17.036Z,98887.22
2022-08-23T23:16:46.039Z,98890.31
2022-08-23T23:19:33.927Z,98904.84
2022-08-23T23:22:07.655Z,98898.50
2022-08-23T23:24:43.298Z,98896.09
2022-08-23T23:27:11.637Z,98907.84
2022-08-23T23:29:40.151Z,98916.06
2022-08-23T23:32:08.794Z,98908.53
2022-08-23T23:34:38.120Z,98917.16
2022-08-23T23:37:07.980Z,98917.50
2022-08-23T23:39:38.869Z,98929.59
2022-08-23T23:42:07.649Z,98944.50
2022-08-23T23:44:36.126Z,98963.31
2022-08-23T23:47:04.616Z,98945.59
2022-08-23T23:49:33.639Z,98950.66
2022-08-23T23:52:03.383Z,98967.09
2022-08-23T23:54:35.812Z,98965.06
2022-08-23T23:57:04.388Z,98957.50
2022-08-23T23:59:33.720Z,98964.63
